createdAt,value
2022-11-05T00:01:35.208Z,11.83
2022-11-05T00:04:20.654Z,13.93
2022-11-05T00:07:05.879Z,12.23
2022-11-05T00:09:32.883Z,14.50
2022-11-05T00:12:19.701Z,12.03
2022-11-05T00:15:05.057Z,12.57
2022-11-05T00:17:31.771Z,11.63
2022-11-05T00:19:58.317Z,14.43
2022-11-05T00:22:43.341Z,12.27
2022-11-05T00:25:18.908Z,11.47
2022-11-05T00:27:46.233Z,11.23
2022-11-05T00:30:13.558Z,10.73
2022-11-05T00:32:40.590Z,12.40
2022-11-05T00:37:52.998Z,13.87
2022-11-05T00:40:19.526Z,11.80
2022-11-05T00:43:04.913Z,12.57
2022-11-05T00:45:31.570Z,12.90
2022-11-05T00:48:16.577Z,12.77
2022-11-05T00:50:46.436Z,12.37
2022-11-05T00:53:13.477Z,11.30
2022-11-05T00:55:41.346Z,13.27
2022-11-05T00:58:09.568Z,14.70
2022-11-05T01:00:37.108Z,14.83
2022-11-05T01:03:04.902Z,13.97
2022-11-05T01:05:31.884Z,15.13
2022-11-05T01:07:58.580Z,13.87
2022-11-05T01:10:25.205Z,12.57
2022-11-05T01:12:51.914Z,12.90
2022-11-05T01:15:18.844Z,13.47
2022-11-05T01:17:45.511Z,12.47
2022-11-05T01:20:12.187Z,12.90
2022-11-05T01:22:38.782Z,12.47
2022-11-05T01:25:07.439Z,12.47
2022-11-05T01:27:35.037Z,13.63
2022-11-05T01:30:01.596Z,13.40
2022-11-05T01:32:28.148Z,14.00
2022-11-05T01:34:54.715Z,14.90
2022-11-05T01:37:21.296Z,13.53
2022-11-05T01:39:47.876Z,12.30
2022-11-05T01:42:15.259Z,14.20
2022-11-05T01:45:00.786Z,12.83
2022-11-05T01:47:27.385Z,13.77
2022-11-05T01:49:53.975Z,14.27
2022-11-05T01:52:20.486Z,12.57
2022-11-05T01:54:47.547Z,11.97
2022-11-05T01:57:14.394Z,12.17
2022-11-05T01:59:43.231Z,11.03
2022-11-05T02:02:10.057Z,10.37
2022-11-05T02:04:38.099Z,10.40
2022-11-05T02:07:04.900Z,11.83
2022-11-05T02:12:36.533Z,12.43
2022-11-05T02:18:05.806Z,12.00
2022-11-05T02:20:35.273Z,8.30
2022-11-05T02:23:20.598Z,8.97
2022-11-05T02:26:10.344Z,8.63
2022-11-05T02:28:55.363Z,8.23
2022-11-05T02:31:25.081Z,7.63
2022-11-05T02:34:07.211Z,6.97
2022-11-05T02:36:45.800Z,6.80
2022-11-05T02:39:30.925Z,6.90
2022-11-05T02:42:16.044Z,6.27
2022-11-05T02:44:54.635Z,6.77
2022-11-05T02:47:31.225Z,5.90
2022-11-05T02:50:02.766Z,6.03
2022-11-05T02:52:52.850Z,7.50
2022-11-05T02:55:33.856Z,5.40
2022-11-05T02:58:02.292Z,7.17
2022-11-05T03:00:35.234Z,6.47
2022-11-05T03:03:02.074Z,6.07
2022-11-05T03:05:30.406Z,6.13
2022-11-05T03:07:58.516Z,6.40
2022-11-05T03:10:25.470Z,6.07
2022-11-05T03:12:57.098Z,6.13
2022-11-05T03:15:30.385Z,5.77
2022-11-05T03:18:03.261Z,5.43
2022-11-05T03:20:48.677Z,6.50
2022-11-05T03:23:19.583Z,6.37
2022-11-05T03:25:47.756Z,7.00
2022-11-05T03:28:14.323Z,8.60
2022-11-05T03:30:41.172Z,7.40
2022-11-05T03:33:09.441Z,8.40
2022-11-05T03:35:40.011Z,7.87
2022-11-05T03:38:07.242Z,7.53
2022-11-05T03:40:34.271Z,6.97
2022-11-05T03:43:00.782Z,7.47
2022-11-05T03:45:36.917Z,8.87
2022-11-05T03:48:03.497Z,7.57
2022-11-05T03:50:40.941Z,7.60
2022-11-05T03:53:15.677Z,6.50
2022-11-05T03:55:46.245Z,7.83
2022-11-05T03:58:13.223Z,7.33
2022-11-05T04:00:39.994Z,7.20
2022-11-05T04:03:06.665Z,7.83
2022-11-05T04:05:33.223Z,9.23
2022-11-05T04:08:18.661Z,6.40
2022-11-05T04:11:03.956Z,6.27
2022-11-05T04:13:30.710Z,6.30
2022-11-05T04:16:15.777Z,6.63
2022-11-05T04:18:42.519Z,6.37
2022-11-05T04:21:27.749Z,7.47
2022-11-05T04:24:09.485Z,6.43
2022-11-05T04:26:40.077Z,7.77
2022-11-05T04:29:25.225Z,6.20
2022-11-05T04:31:51.819Z,6.47
2022-11-05T04:34:19.103Z,5.97
2022-11-05T04:36:46.214Z,6.77
2022-11-05T04:39:12.738Z,6.73
2022-11-05T04:41:39.321Z,8.20
2022-11-05T04:44:06.006Z,6.60
2022-11-05T04:46:32.634Z,7.30
2022-11-05T04:48:59.153Z,9.17
2022-11-05T04:51:27.324Z,7.40
2022-11-05T04:53:53.958Z,7.57
2022-11-05T04:56:21.512Z,8.93
2022-11-05T04:58:48.102Z,7.90
2022-11-05T05:01:18.636Z,7.50
2022-11-05T05:03:48.718Z,8.67
2022-11-05T05:06:15.396Z,8.33
2022-11-05T05:08:42.016Z,8.70
2022-11-05T05:11:09.475Z,8.37
2022-11-05T05:13:36.116Z,8.60
2022-11-05T05:16:09.353Z,8.70
2022-11-05T05:18:35.941Z,8.63
2022-11-05T05:21:21.155Z,8.73
2022-11-05T05:23:48.395Z,8.67
2022-11-05T05:26:17.918Z,9.47
2022-11-05T05:28:44.615Z,9.43
2022-11-05T05:31:11.223Z,9.53
2022-11-05T05:33:37.830Z,9.73
2022-11-05T05:36:10.014Z,9.30
2022-11-05T05:38:37.958Z,9.50
2022-11-05T05:41:04.563Z,10.17
2022-11-05T05:43:31.731Z,9.03
2022-11-05T05:46:02.192Z,9.73
2022-11-05T05:48:29.029Z,8.57
2022-11-05T05:50:59.247Z,9.37
2022-11-05T05:53:25.919Z,9.00
2022-11-05T05:55:53.550Z,10.77
2022-11-05T05:58:23.227Z,11.13
2022-11-05T06:00:49.838Z,10.67
2022-11-05T06:03:16.450Z,11.27
2022-11-05T06:05:43.262Z,12.93
2022-11-05T06:08:09.848Z,11.20
2022-11-05T06:10:36.610Z,11.00
2022-11-05T06:13:03.381Z,12.10
2022-11-05T06:15:35.497Z,10.13
2022-11-05T06:18:02.713Z,9.63
2022-11-05T06:20:29.276Z,8.83
2022-11-05T06:22:58.812Z,9.33
2022-11-05T06:25:25.476Z,7.70
2022-11-05T06:27:52.550Z,8.97
2022-11-05T06:30:19.200Z,8.30
2022-11-05T06:35:29.699Z,8.13
2022-11-05T06:38:02.449Z,8.17
2022-11-05T06:40:29.585Z,7.90
2022-11-05T06:42:56.277Z,7.93
2022-11-05T06:48:07.054Z,7.33
2022-11-05T06:50:33.939Z,7.80
2022-11-05T06:53:01.100Z,8.10
2022-11-05T06:55:29.050Z,8.70
2022-11-05T06:57:56.216Z,7.73
2022-11-05T07:00:22.988Z,8.70
2022-11-05T07:02:49.647Z,9.20
2022-11-05T07:05:16.303Z,10.30
2022-11-05T07:07:43.671Z,10.10
2022-11-05T07:10:14.469Z,9.20
2022-11-05T07:12:41.143Z,9.80
2022-11-05T07:15:08.193Z,9.87
2022-11-05T07:17:34.909Z,9.73
2022-11-05T07:20:01.573Z,11.27
2022-11-05T07:22:28.231Z,11.97
2022-11-05T07:24:54.784Z,10.63
2022-11-05T07:27:21.716Z,11.10
2022-11-05T07:29:48.289Z,12.77
2022-11-05T07:32:15.085Z,13.27
2022-11-05T07:34:41.787Z,12.53
2022-11-05T07:37:08.729Z,11.73
2022-11-05T07:39:35.559Z,10.67
2022-11-05T07:42:02.133Z,11.90
2022-11-05T07:44:33.353Z,11.33
2022-11-05T07:47:00.000Z,10.63
2022-11-05T07:49:26.630Z,11.80
2022-11-05T07:51:53.728Z,10.07
2022-11-05T07:54:20.303Z,10.27
2022-11-05T07:56:48.540Z,13.63
2022-11-05T07:59:15.258Z,10.83
2022-11-05T08:01:42.271Z,13.40
2022-11-05T08:04:08.994Z,13.10
2022-11-05T08:06:35.953Z,12.30
2022-11-05T08:09:02.484Z,11.23
2022-11-05T08:11:29.136Z,14.07
2022-11-05T08:13:55.828Z,15.07
2022-11-05T08:16:22.473Z,15.83
2022-11-05T08:18:51.844Z,19.80
2022-11-05T08:21:18.416Z,19.30
2022-11-05T08:23:45.334Z,21.27
2022-11-05T08:26:11.982Z,20.53
2022-11-05T08:28:38.532Z,21.77
2022-11-05T08:31:05.254Z,21.83
2022-11-05T08:33:32.244Z,21.37
2022-11-05T08:36:01.721Z,24.03
2022-11-05T08:38:29.257Z,24.00
2022-11-05T08:40:56.842Z,24.10
2022-11-05T08:43:23.500Z,23.07
2022-11-05T08:45:50.126Z,25.03
2022-11-05T08:48:17.339Z,24.40
2022-11-05T08:50:44.825Z,27.90
2022-11-05T08:53:11.963Z,23.90
2022-11-05T08:55:40.021Z,29.87
2022-11-05T08:58:07.827Z,26.63
2022-11-05T09:00:35.050Z,24.13
2022-11-05T09:03:02.164Z,21.50
2022-11-05T09:05:29.307Z,22.67
2022-11-05T09:08:00.789Z,20.60
2022-11-05T09:10:29.231Z,18.77
2022-11-05T09:12:56.008Z,20.43
2022-11-05T09:15:23.549Z,17.43
2022-11-05T09:17:50.420Z,18.03
2022-11-05T09:20:17.354Z,17.00
2022-11-05T09:22:44.516Z,15.77
2022-11-05T09:25:11.279Z,15.67
2022-11-05T09:27:37.877Z,16.40
2022-11-05T09:30:04.739Z,14.70
2022-11-05T09:32:31.820Z,14.10
2022-11-05T09:35:00.415Z,12.23
2022-11-05T09:37:28.436Z,11.33
2022-11-05T09:39:55.157Z,12.37
2022-11-05T09:42:22.934Z,9.13
2022-11-05T09:44:51.432Z,7.87
2022-11-05T09:47:19.695Z,7.67
2022-11-05T09:49:48.816Z,6.87
2022-11-05T09:52:17.660Z,6.77
2022-11-05T09:54:44.529Z,7.13
2022-11-05T09:57:16.213Z,5.77
2022-11-05T09:59:47.225Z,5.57
2022-11-05T10:02:14.007Z,6.40
2022-11-05T10:04:40.633Z,6.53
2022-11-05T10:07:07.293Z,5.80
2022-11-05T10:09:38.161Z,4.83
2022-11-05T10:12:08.726Z,20.60
2022-11-05T10:14:46.873Z,7.80
2022-11-05T10:17:18.159Z,7.03
2022-11-05T10:19:53.630Z,4.97
2022-11-05T10:22:20.320Z,4.73
2022-11-05T10:24:47.888Z,5.13
2022-11-05T10:27:24.684Z,4.77
2022-11-05T10:29:51.490Z,5.50
2022-11-05T10:32:27.411Z,6.17
2022-11-05T10:34:54.247Z,7.50
2022-11-05T10:37:20.830Z,5.07
2022-11-05T10:39:49.059Z,4.07
2022-11-05T10:42:21.824Z,4.97
2022-11-05T10:44:54.782Z,5.27
2022-11-05T10:47:21.481Z,5.50
2022-11-05T10:49:59.081Z,4.60
2022-11-05T10:52:33.543Z,3.60
2022-11-05T10:55:00.924Z,4.43
2022-11-05T10:57:37.727Z,5.00
2022-11-05T11:00:18.630Z,4.53
2022-11-05T11:02:49.696Z,5.07
2022-11-05T11:05:21.602Z,6.40
2022-11-05T11:07:56.098Z,7.63
2022-11-05T11:10:22.841Z,6.70
2022-11-05T11:12:49.925Z,6.90
2022-11-05T11:15:27.575Z,6.63
2022-11-05T11:17:55.074Z,5.70
2022-11-05T11:20:23.599Z,4.80
2022-11-05T11:22:58.808Z,2.90
2022-11-05T11:25:26.151Z,3.90
2022-11-05T11:27:52.737Z,3.47
2022-11-05T11:30:19.686Z,4.77
2022-11-05T11:32:46.433Z,3.30
2022-11-05T11:35:20.558Z,6.47
2022-11-05T11:37:47.218Z,2.97
2022-11-05T11:40:16.240Z,6.10
2022-11-05T11:42:45.513Z,5.30
2022-11-05T11:45:19.616Z,8.03
2022-11-05T11:47:47.109Z,8.17
2022-11-05T11:50:32.460Z,11.30
2022-11-05T11:53:22.212Z,9.73
2022-11-05T11:55:57.795Z,9.00
2022-11-05T11:58:25.920Z,8.70
2022-11-05T12:00:56.104Z,8.23
2022-11-05T12:03:29.426Z,9.23
2022-11-05T12:06:05.549Z,7.90
2022-11-05T12:08:32.247Z,10.93
2022-11-05T12:11:08.167Z,6.37
2022-11-05T12:13:44.292Z,7.37
2022-11-05T12:16:16.012Z,7.03
2022-11-05T12:18:48.898Z,6.73
2022-11-05T12:21:47.725Z,6.10
2022-11-05T12:26:57.422Z,7.10
2022-11-05T12:29:35.385Z,5.63
2022-11-05T12:32:15.282Z,7.70
2022-11-05T12:37:44.689Z,6.70
2022-11-05T12:40:17.510Z,5.97
2022-11-05T12:42:53.136Z,6.13
2022-11-05T12:45:19.794Z,6.90
2022-11-05T12:48:12.762Z,6.40
2022-11-05T12:50:45.860Z,11.13
2022-11-05T12:53:31.297Z,8.83
2022-11-05T12:55:58.959Z,9.77
2022-11-05T12:58:27.205Z,8.60
2022-11-05T13:01:05.322Z,8.53
2022-11-05T13:03:38.157Z,11.17
2022-11-05T13:06:06.340Z,8.57
2022-11-05T13:08:37.827Z,6.10
2022-11-05T13:11:14.218Z,10.37
2022-11-05T13:13:46.107Z,8.10
2022-11-05T13:16:13.735Z,7.80
2022-11-05T13:18:42.790Z,10.77
2022-11-05T13:21:09.614Z,7.07
2022-11-05T13:23:59.745Z,7.57
2022-11-05T13:26:26.486Z,13.20
2022-11-05T13:28:57.611Z,9.60
2022-11-05T13:31:31.954Z,8.33
2022-11-05T13:33:59.096Z,8.90
2022-11-05T13:36:45.522Z,9.57
2022-11-05T13:39:16.863Z,8.90
2022-11-05T13:42:01.890Z,14.03
2022-11-05T13:44:47.183Z,9.83
2022-11-05T13:47:32.317Z,13.27
2022-11-05T13:49:59.461Z,7.87
2022-11-05T13:52:33.608Z,12.07
2022-11-05T13:55:03.652Z,15.20
2022-11-05T13:57:39.697Z,7.63
2022-11-05T14:00:15.667Z,6.77
2022-11-05T14:02:43.929Z,14.07
2022-11-05T14:05:29.453Z,9.53
2022-11-05T14:07:57.029Z,12.80
2022-11-05T14:10:45.232Z,10.00
2022-11-05T14:13:23.974Z,10.83
2022-11-05T14:16:00.023Z,10.20
2022-11-05T14:18:42.887Z,13.20
2022-11-05T14:21:38.541Z,9.33
2022-11-05T14:24:25.185Z,9.10
2022-11-05T14:27:11.650Z,10.27
2022-11-05T14:30:04.754Z,9.90
2022-11-05T14:32:45.462Z,11.70
2022-11-05T14:35:18.062Z,11.07
2022-11-05T14:37:58.755Z,12.43
2022-11-05T14:40:35.599Z,8.53
2022-11-05T14:43:12.374Z,10.53
2022-11-05T14:45:40.161Z,12.33
2022-11-05T14:48:07.861Z,12.43
2022-11-05T14:50:38.873Z,12.43
2022-11-05T14:53:10.532Z,18.20
2022-11-05T14:55:38.566Z,18.23
2022-11-05T14:58:06.863Z,15.50
2022-11-05T15:00:36.761Z,13.73
2022-11-05T15:03:04.717Z,12.90
2022-11-05T15:05:31.422Z,12.17
2022-11-05T15:07:58.320Z,10.83
2022-11-05T15:10:31.790Z,11.67
2022-11-05T15:13:04.888Z,8.70
2022-11-05T15:15:32.302Z,12.43
2022-11-05T15:18:05.025Z,12.50
2022-11-05T15:20:39.931Z,12.70
2022-11-05T15:23:09.528Z,12.50
2022-11-05T15:25:53.398Z,15.70
2022-11-05T15:28:26.727Z,11.30
2022-11-05T15:31:01.546Z,13.40
2022-11-05T15:33:28.347Z,12.90
2022-11-05T15:35:55.492Z,14.70
2022-11-05T15:38:25.133Z,11.90
2022-11-05T15:40:56.824Z,13.90
2022-11-05T15:43:23.522Z,15.67
2022-11-05T15:46:03.752Z,15.23
2022-11-05T15:48:30.510Z,17.33
2022-11-05T15:50:57.392Z,13.67
2022-11-05T15:56:38.729Z,15.80
2022-11-05T15:59:20.935Z,15.00
2022-11-05T16:01:58.341Z,16.63
2022-11-05T16:04:29.201Z,16.67
2022-11-05T16:07:17.434Z,26.67
2022-11-05T16:09:51.174Z,44.70
2022-11-05T16:12:21.433Z,46.57
2022-11-05T16:14:56.948Z,34.97
2022-11-05T16:17:24.727Z,36.77
2022-11-05T16:19:51.547Z,36.03
2022-11-05T16:22:18.468Z,34.70
2022-11-05T16:24:45.328Z,35.57
2022-11-05T16:27:19.303Z,38.23
2022-11-05T16:29:50.101Z,52.03
2022-11-05T16:32:17.569Z,30.97
2022-11-05T16:34:48.334Z,44.90
2022-11-05T16:37:16.107Z,51.03
2022-11-05T16:39:42.854Z,37.80
2022-11-05T16:42:26.294Z,44.23
2022-11-05T16:44:53.826Z,36.33
2022-11-05T16:47:20.660Z,29.17
2022-11-05T16:49:47.705Z,24.70
2022-11-05T16:52:23.590Z,27.60
2022-11-05T16:54:51.080Z,28.90
2022-11-05T16:57:24.914Z,23.70
2022-11-05T16:59:52.771Z,20.57
2022-11-05T17:02:19.685Z,21.67
2022-11-05T17:04:46.776Z,20.80
2022-11-05T17:07:13.509Z,21.80
2022-11-05T17:09:40.292Z,19.90
2022-11-05T17:12:08.826Z,22.87
2022-11-05T17:14:36.614Z,18.43
2022-11-05T17:17:03.684Z,22.50
2022-11-05T17:19:30.680Z,17.13
2022-11-05T17:21:57.359Z,19.47
2022-11-05T17:24:23.973Z,19.73
2022-11-05T17:26:50.536Z,26.27
2022-11-05T17:29:17.610Z,24.17
2022-11-05T17:31:44.400Z,21.57
2022-11-05T17:34:11.115Z,19.30
2022-11-05T17:36:37.976Z,25.00
2022-11-05T17:39:07.690Z,23.83
2022-11-05T17:41:35.669Z,19.20
2022-11-05T17:44:02.468Z,22.03
2022-11-05T17:46:31.331Z,17.57
2022-11-05T17:48:58.027Z,17.80
2022-11-05T17:51:24.857Z,17.40
2022-11-05T17:53:51.757Z,17.53
2022-11-05T17:56:32.091Z,18.80
2022-11-05T17:59:01.692Z,21.37
2022-11-05T18:01:32.763Z,24.33
2022-11-05T18:04:03.807Z,19.03
2022-11-05T18:06:35.288Z,24.47
2022-11-05T18:09:02.062Z,21.33
2022-11-05T18:11:28.692Z,17.50
2022-11-05T18:13:55.614Z,22.10
2022-11-05T18:16:22.231Z,21.03
2022-11-05T18:18:49.395Z,22.13
2022-11-05T18:21:16.188Z,20.17
2022-11-05T18:23:42.781Z,20.03
2022-11-05T18:26:10.226Z,21.53
2022-11-05T18:28:37.775Z,20.17
2022-11-05T18:31:07.306Z,22.40
2022-11-05T18:33:36.754Z,22.00
2022-11-05T18:36:04.808Z,17.87
2022-11-05T18:38:32.165Z,19.03
2022-11-05T18:40:58.852Z,19.73
2022-11-05T18:43:25.552Z,15.87
2022-11-05T18:45:56.097Z,21.70
2022-11-05T18:48:22.827Z,18.57
2022-11-05T18:50:49.634Z,19.90
2022-11-05T18:53:16.867Z,19.20
2022-11-05T18:55:43.665Z,19.07
2022-11-05T18:58:10.990Z,26.77
2022-11-05T19:00:41.298Z,20.60
2022-11-05T19:03:09.603Z,23.47
2022-11-05T19:05:36.556Z,22.47
2022-11-05T19:08:03.319Z,24.73
2022-11-05T19:10:29.985Z,24.87
2022-11-05T19:12:56.850Z,29.60
2022-11-05T19:15:23.509Z,24.50
2022-11-05T19:17:50.328Z,25.13
2022-11-05T19:20:18.095Z,30.30
2022-11-05T19:22:46.763Z,25.03
2022-11-05T19:25:15.572Z,22.13
2022-11-05T19:27:43.804Z,27.43
2022-11-05T19:30:10.584Z,24.30
2022-11-05T19:32:37.328Z,21.07
2022-11-05T19:35:05.778Z,20.00
2022-11-05T19:37:32.496Z,19.93
2022-11-05T19:39:59.223Z,20.70
2022-11-05T19:42:26.456Z,18.10
2022-11-05T19:44:53.060Z,22.60
2022-11-05T19:47:21.206Z,21.83
2022-11-05T19:49:47.837Z,25.80
2022-11-05T19:52:16.866Z,25.03
2022-11-05T19:54:43.447Z,22.13
2022-11-05T19:57:10.329Z,33.90
2022-11-05T19:59:37.366Z,26.10
2022-11-05T20:02:04.655Z,23.67
2022-11-05T20:04:32.593Z,21.63
2022-11-05T20:07:01.806Z,20.40
2022-11-05T20:09:28.386Z,23.73
2022-11-05T20:14:40.662Z,22.83
2022-11-05T20:17:07.246Z,18.47
2022-11-05T20:19:34.170Z,16.60
2022-11-05T20:22:01.502Z,24.63
2022-11-05T20:24:28.257Z,20.10
2022-11-05T20:26:54.957Z,20.40
2022-11-05T20:29:22.153Z,20.87
2022-11-05T20:31:51.064Z,20.77
2022-11-05T20:34:17.957Z,14.30
2022-11-05T20:36:45.814Z,15.57
2022-11-05T20:39:13.218Z,15.53
2022-11-05T20:41:39.976Z,17.70
2022-11-05T20:44:06.738Z,15.80
2022-11-05T20:46:33.872Z,14.40
2022-11-05T20:49:00.502Z,17.00
2022-11-05T20:51:27.446Z,17.63
2022-11-05T20:53:54.982Z,16.90
2022-11-05T20:56:25.804Z,17.90
2022-11-05T20:58:57.295Z,19.77
2022-11-05T21:01:24.209Z,16.10
2022-11-05T21:03:50.879Z,16.13
2022-11-05T21:06:22.433Z,19.67
2022-11-05T21:08:50.128Z,17.47
2022-11-05T21:11:17.408Z,23.13
2022-11-05T21:13:44.595Z,19.50
2022-11-05T21:16:16.859Z,19.57
2022-11-05T21:21:30.130Z,19.33
2022-11-05T21:23:57.009Z,16.40
2022-11-05T21:26:23.628Z,20.53
2022-11-05T21:28:50.172Z,18.27
2022-11-05T21:31:16.846Z,22.37
2022-11-05T21:33:43.459Z,13.97
2022-11-05T21:36:10.889Z,19.23
2022-11-05T21:38:37.773Z,17.20
2022-11-05T21:41:04.617Z,21.10
2022-11-05T21:43:31.340Z,14.43
2022-11-05T21:46:00.559Z,15.43
2022-11-05T21:48:27.342Z,16.67
2022-11-05T21:51:12.887Z,13.77
2022-11-05T21:54:01.337Z,17.37
2022-11-05T21:56:46.555Z,16.60
2022-11-05T21:59:35.325Z,17.90
2022-11-05T22:02:03.283Z,19.50
2022-11-05T22:04:30.592Z,15.53
2022-11-05T22:06:57.250Z,18.90
2022-11-05T22:09:24.592Z,16.73
2022-11-05T22:11:51.925Z,15.37
2022-11-05T22:14:18.555Z,18.17
2022-11-05T22:16:45.627Z,14.57
2022-11-05T22:19:12.803Z,17.53
2022-11-05T22:21:39.640Z,16.07
2022-11-05T22:24:06.604Z,16.73
2022-11-05T22:26:33.329Z,14.83
2022-11-05T22:28:59.892Z,13.30
2022-11-05T22:31:28.559Z,15.63
2022-11-05T22:33:58.607Z,12.77
2022-11-05T22:36:25.641Z,15.13
2022-11-05T22:38:52.363Z,18.83
2022-11-05T22:41:19.695Z,17.00
2022-11-05T22:43:47.754Z,12.67
2022-11-05T22:46:21.666Z,14.63
2022-11-05T22:48:49.596Z,17.00
2022-11-05T22:51:17.139Z,17.17
2022-11-05T22:53:45.290Z,18.10
2022-11-05T22:56:12.895Z,9.07
2022-11-05T22:58:39.780Z,12.27
2022-11-05T23:01:06.780Z,17.20
2022-11-05T23:03:33.641Z,15.60
2022-11-05T23:06:02.806Z,17.00
2022-11-05T23:08:48.342Z,11.83
2022-11-05T23:11:38.677Z,16.07
2022-11-05T23:14:06.374Z,14.67
2022-11-05T23:16:51.705Z,15.20
2022-11-05T23:19:37.269Z,15.23
2022-11-05T23:22:22.576Z,12.77
2022-11-05T23:24:49.290Z,10.97
2022-11-05T23:27:15.816Z,13.43
2022-11-05T23:29:42.465Z,14.60
2022-11-05T23:32:24.473Z,13.53
2022-11-05T23:34:54.666Z,14.43
2022-11-05T23:37:40.162Z,10.67
2022-11-05T23:40:08.297Z,12.83
2022-11-05T23:42:53.707Z,12.43
2022-11-05T23:45:38.861Z,9.20
2022-11-05T23:48:17.963Z,8.17
2022-11-05T23:50:50.818Z,11.17
2022-11-05T23:53:17.579Z,15.20
2022-11-05T23:55:44.081Z,10.00
2022-11-05T23:58:11.444Z,10.53
